Roper, Kansas
Current Conditions -  °F | °C
As of 4:16 AM on Thursday 23 Oct 2014 (Local Time) from KCNU Reporting Station
Light Rain Light Rain  
Wind Chill: 60°   Ceiling: 9500
Heat Index: 60°   Visibility: 10mi
Dew Point: 59°   Wind: 7mph
Humidity: 96%   Direction: 150°SSE
Pressure: 30.11"   Gusts: NA
Location:  37.634°N, 95.6326°W
Report Text: KCNU 230916Z AUTO 15006KT 10SM -RA SCT008 OVC095 16/15 A3011 RMK AO2 P0001 T01560150
Loading
Personal Weather Stations






























Interactive Weather Map
Tropical Storm Tracking
New forecast layout! Learn more

10-Day Weather Forecast

Advertisements
Track Severe Weather on mobile